createdAt,value
2018-05-02T00:02:13.555Z,16.40
2018-05-02T00:04:41.195Z,16.40
2018-05-02T00:07:08.766Z,16.40
2018-05-02T00:09:36.343Z,16.40
2018-05-02T00:12:03.932Z,16.40
2018-05-02T00:14:31.563Z,16.40
2018-05-02T00:16:59.151Z,16.30
2018-05-02T00:19:26.755Z,16.20
2018-05-02T00:21:54.326Z,16.20
2018-05-02T00:24:21.952Z,16.00
2018-05-02T00:26:50.341Z,16.00
2018-05-02T00:29:18.711Z,16.00
2018-05-02T00:31:47.049Z,15.90
2018-05-02T00:34:14.809Z,15.90
2018-05-02T00:36:42.687Z,15.80
2018-05-02T00:39:10.255Z,15.90
2018-05-02T00:41:37.846Z,15.90
2018-05-02T00:44:06.205Z,15.90
2018-05-02T00:46:34.641Z,15.90
2018-05-02T00:49:16.898Z,15.90
2018-05-02T00:51:45.230Z,15.90
2018-05-02T00:54:12.843Z,15.90
2018-05-02T00:56:41.196Z,15.90
2018-05-02T00:59:09.738Z,15.90
2018-05-02T01:01:37.383Z,15.90
2018-05-02T01:04:04.962Z,15.80
2018-05-02T01:06:32.553Z,15.80
2018-05-02T01:09:00.174Z,15.80
2018-05-02T01:11:27.776Z,15.80
2018-05-02T01:13:56.198Z,15.80
2018-05-02T01:16:23.768Z,15.80
2018-05-02T01:18:51.943Z,15.70
2018-05-02T01:21:19.615Z,15.70
2018-05-02T01:23:47.180Z,15.70
2018-05-02T01:26:14.789Z,15.70
2018-05-02T01:28:43.225Z,15.60
2018-05-02T01:31:10.793Z,15.60
2018-05-02T01:33:38.394Z,15.50
2018-05-02T01:36:06.782Z,15.40
2018-05-02T01:38:34.394Z,15.40
2018-05-02T01:41:01.980Z,15.40
2018-05-02T01:43:30.360Z,15.30
2018-05-02T01:45:58.747Z,15.30
2018-05-02T01:48:26.410Z,15.30
2018-05-02T01:50:54.822Z,15.20
2018-05-02T01:53:22.446Z,15.20
2018-05-02T01:55:50.033Z,15.30
2018-05-02T01:58:17.696Z,15.20
2018-05-02T02:00:45.259Z,15.10
2018-05-02T02:03:12.844Z,15.10
2018-05-02T02:05:40.492Z,15.10
2018-05-02T02:08:08.097Z,15.10
2018-05-02T02:10:36.438Z,15.10
2018-05-02T02:13:04.046Z,15.10
2018-05-02T02:15:32.391Z,15.20
2018-05-02T02:18:00.039Z,15.10
2018-05-02T02:20:27.648Z,15.20
2018-05-02T02:22:55.291Z,15.20
2018-05-02T02:25:23.637Z,15.30
2018-05-02T02:27:51.208Z,15.30
2018-05-02T02:30:18.824Z,15.30
2018-05-02T02:32:46.374Z,15.30
2018-05-02T02:35:13.944Z,15.40
2018-05-02T02:37:41.546Z,15.40
2018-05-02T02:40:09.174Z,15.40
2018-05-02T02:42:36.749Z,15.30
2018-05-02T02:45:04.330Z,15.30
2018-05-02T02:47:31.952Z,15.40
2018-05-02T02:49:59.529Z,15.40
2018-05-02T02:52:28.006Z,15.50
2018-05-02T02:54:55.630Z,15.50
2018-05-02T02:57:23.213Z,15.40
2018-05-02T02:59:50.775Z,15.40
2018-05-02T03:02:18.365Z,15.40
2018-05-02T03:04:45.992Z,15.40
2018-05-02T03:07:14.420Z,15.30
2018-05-02T03:09:42.766Z,15.30
2018-05-02T03:12:10.401Z,15.30
2018-05-02T03:14:38.001Z,15.20
2018-05-02T03:17:05.606Z,15.30
2018-05-02T03:19:33.205Z,15.20
2018-05-02T03:22:00.761Z,15.20
2018-05-02T03:24:28.329Z,15.20
2018-05-02T03:26:55.979Z,15.30
2018-05-02T03:29:23.550Z,15.30
2018-05-02T03:31:51.146Z,15.30
2018-05-02T03:34:18.777Z,15.30
2018-05-02T03:36:46.353Z,15.40
2018-05-02T03:39:14.052Z,15.40
2018-05-02T03:41:41.660Z,15.40
2018-05-02T03:44:09.250Z,15.40
2018-05-02T03:46:37.663Z,15.50
2018-05-02T03:49:05.239Z,15.50
2018-05-02T03:51:32.850Z,15.50
2018-05-02T03:54:01.278Z,15.50
2018-05-02T03:56:28.853Z,15.50
2018-05-02T03:58:56.401Z,15.50
2018-05-02T04:01:35.695Z,15.50
2018-05-02T04:04:14.972Z,15.50
2018-05-02T04:07:10.863Z,15.60
2018-05-02T04:09:38.476Z,15.60
2018-05-02T04:12:06.061Z,15.60
2018-05-02T04:14:33.632Z,15.60
2018-05-02T04:17:01.297Z,15.60
2018-05-02T04:19:28.857Z,15.70
2018-05-02T04:21:56.425Z,15.60
2018-05-02T04:24:24.009Z,15.70
2018-05-02T04:26:51.614Z,15.70
2018-05-02T04:29:19.958Z,15.80
2018-05-02T04:31:47.582Z,15.70
2018-05-02T04:34:15.161Z,15.80
2018-05-02T04:36:42.720Z,15.90
2018-05-02T04:39:10.333Z,15.90
2018-05-02T04:41:38.707Z,16.10
2018-05-02T04:44:07.046Z,16.10
2018-05-02T04:46:34.650Z,16.10
2018-05-02T04:49:03.011Z,16.20
2018-05-02T04:51:31.362Z,16.20
2018-05-02T04:53:59.115Z,16.20
2018-05-02T04:56:26.675Z,16.20
2018-05-02T04:58:54.292Z,16.20
2018-05-02T05:01:22.619Z,16.30
2018-05-02T05:03:50.193Z,16.20
2018-05-02T05:06:17.836Z,16.30
2018-05-02T05:08:45.400Z,16.20
2018-05-02T05:11:12.996Z,16.20
2018-05-02T05:13:41.371Z,16.30
2018-05-02T05:16:09.707Z,16.30
2018-05-02T05:18:37.320Z,16.30
2018-05-02T05:21:04.892Z,16.20
2018-05-02T05:23:32.484Z,16.30
2018-05-02T05:26:00.061Z,16.20
2018-05-02T05:28:27.639Z,16.20
2018-05-02T05:30:56.493Z,16.20
2018-05-02T05:33:24.110Z,16.10
2018-05-02T05:35:52.448Z,16.10
2018-05-02T05:38:20.742Z,16.10
2018-05-02T05:40:48.315Z,16.20
2018-05-02T05:43:16.677Z,16.30
2018-05-02T05:45:44.295Z,16.30
2018-05-02T05:48:11.896Z,16.30
2018-05-02T05:50:40.377Z,16.20
2018-05-02T05:53:07.953Z,16.30
2018-05-02T05:55:36.330Z,16.30
2018-05-02T05:58:04.660Z,16.30
2018-05-02T06:00:32.240Z,16.30
2018-05-02T06:02:59.859Z,16.30
2018-05-02T06:05:27.435Z,16.30
2018-05-02T06:07:54.994Z,16.30
2018-05-02T06:10:22.596Z,16.30
2018-05-02T06:12:50.976Z,16.40
2018-05-02T06:15:18.549Z,16.30
2018-05-02T06:17:46.926Z,16.40
2018-05-02T06:20:15.272Z,16.40
2018-05-02T06:22:42.866Z,16.40
2018-05-02T06:25:11.195Z,16.40
2018-05-02T06:27:38.757Z,16.40
2018-05-02T06:30:06.369Z,16.50
2018-05-02T06:32:33.928Z,16.50
2018-05-02T06:35:01.524Z,16.50
2018-05-02T06:37:29.104Z,16.60
2018-05-02T06:39:56.747Z,16.60
2018-05-02T06:42:24.383Z,16.60
2018-05-02T06:44:51.951Z,16.60
2018-05-02T06:47:19.515Z,16.70
2018-05-02T06:49:47.121Z,16.70
2018-05-02T06:52:14.697Z,16.70
2018-05-02T06:54:43.044Z,16.80
2018-05-02T06:57:10.674Z,16.80
2018-05-02T06:59:38.236Z,16.90
2018-05-02T07:02:05.824Z,16.90
2018-05-02T07:04:33.395Z,17.00
2018-05-02T07:07:01.768Z,17.40
2018-05-02T07:09:29.359Z,17.40
2018-05-02T07:11:56.922Z,17.60
2018-05-02T07:14:24.528Z,17.70
2018-05-02T07:16:52.123Z,17.90
2018-05-02T07:19:20.453Z,18.00
2018-05-02T07:21:48.099Z,18.00
2018-05-02T07:24:15.660Z,18.00
2018-05-02T07:26:43.232Z,18.10
2018-05-02T07:29:10.818Z,18.30
2018-05-02T07:31:38.392Z,18.40
2018-05-02T07:34:06.752Z,18.80
2018-05-02T07:36:34.302Z,18.70
2018-05-02T07:39:01.892Z,18.90
2018-05-02T07:41:30.238Z,19.20
2018-05-02T07:43:57.820Z,19.20
2018-05-02T07:46:26.197Z,19.50
2018-05-02T07:48:54.538Z,19.50
2018-05-02T07:51:22.144Z,19.50
2018-05-02T07:53:50.506Z,19.60
2018-05-02T07:56:18.096Z,19.60
2018-05-02T07:58:45.683Z,19.60
2018-05-02T08:01:13.340Z,19.60
2018-05-02T08:03:41.052Z,19.40
2018-05-02T08:06:08.670Z,19.40
2018-05-02T08:08:36.285Z,19.40
2018-05-02T08:11:04.882Z,19.20
2018-05-02T08:13:33.208Z,19.20
2018-05-02T08:16:00.809Z,19.20
2018-05-02T08:18:29.151Z,19.10
2018-05-02T08:20:56.750Z,19.10
2018-05-02T08:23:25.085Z,19.00
2018-05-02T08:25:52.686Z,19.00
2018-05-02T08:28:21.058Z,19.00
2018-05-02T08:30:49.421Z,19.00
2018-05-02T08:33:17.002Z,19.00
2018-05-02T08:35:45.385Z,19.00
2018-05-02T08:38:13.024Z,19.00
2018-05-02T08:40:40.584Z,18.90
2018-05-02T08:43:08.222Z,18.90
2018-05-02T08:45:35.764Z,19.00
2018-05-02T08:48:03.336Z,19.00
2018-05-02T08:50:30.948Z,19.10
2018-05-02T08:52:59.274Z,18.90
2018-05-02T08:55:26.860Z,18.90
2018-05-02T08:57:54.475Z,18.80
2018-05-02T09:00:22.043Z,18.90
2018-05-02T09:02:49.634Z,18.80
2018-05-02T09:05:17.201Z,18.80
2018-05-02T09:07:45.552Z,18.70
2018-05-02T09:10:13.186Z,18.70
2018-05-02T09:12:40.747Z,18.70
2018-05-02T09:15:08.309Z,18.60
2018-05-02T09:17:35.888Z,18.60
2018-05-02T09:20:03.493Z,18.50
2018-05-02T09:22:31.868Z,18.40
2018-05-02T09:25:00.207Z,18.40
2018-05-02T09:27:28.339Z,18.40
2018-05-02T09:29:56.069Z,18.40
2018-05-02T09:32:24.400Z,18.50
2018-05-02T09:34:52.016Z,18.40
2018-05-02T09:37:20.443Z,18.60
2018-05-02T09:39:48.047Z,18.60
2018-05-02T09:42:16.487Z,18.80
2018-05-02T09:44:44.080Z,18.80
2018-05-02T09:47:12.431Z,19.10
2018-05-02T09:49:40.076Z,19.10
2018-05-02T09:52:07.733Z,19.10
2018-05-02T09:54:35.317Z,19.20
2018-05-02T09:57:02.910Z,19.30
2018-05-02T09:59:31.252Z,19.70
2018-05-02T10:01:58.884Z,19.70
2018-05-02T10:04:26.531Z,19.80
2018-05-02T10:06:54.036Z,19.80
2018-05-02T10:09:21.628Z,20.00
2018-05-02T10:11:49.971Z,20.20
2018-05-02T10:14:17.572Z,20.20
2018-05-02T10:16:45.194Z,20.30
2018-05-02T10:19:12.772Z,20.30
2018-05-02T10:21:41.080Z,20.40
2018-05-02T10:24:08.689Z,20.50
2018-05-02T10:26:36.270Z,20.60
2018-05-02T10:29:03.869Z,20.60
2018-05-02T10:31:31.471Z,20.60
2018-05-02T10:33:59.106Z,20.60
2018-05-02T10:36:26.691Z,20.60
2018-05-02T10:38:54.268Z,20.60
2018-05-02T10:41:22.653Z,20.90
2018-05-02T10:43:50.990Z,20.80
2018-05-02T10:46:18.580Z,20.80
2018-05-02T10:48:46.180Z,20.90
2018-05-02T10:51:14.439Z,21.00
2018-05-02T10:53:42.091Z,21.10
2018-05-02T10:56:10.520Z,21.30
2018-05-02T10:58:38.079Z,21.30
2018-05-02T11:01:05.679Z,21.20
2018-05-02T11:03:33.288Z,21.40
2018-05-02T11:06:00.907Z,21.50
2018-05-02T11:08:29.353Z,21.80
2018-05-02T11:10:56.887Z,21.70
2018-05-02T11:13:24.470Z,21.90
2018-05-02T11:15:52.042Z,21.90
2018-05-02T11:18:19.658Z,22.00
2018-05-02T11:20:47.259Z,22.00
2018-05-02T11:23:14.858Z,22.10
2018-05-02T11:25:42.532Z,22.20
2018-05-02T11:28:10.119Z,22.30
2018-05-02T11:30:37.693Z,22.30
2018-05-02T11:33:05.301Z,22.30
2018-05-02T11:35:32.866Z,22.30
2018-05-02T11:38:00.460Z,22.40
2018-05-02T11:40:28.084Z,22.50
2018-05-02T11:42:56.414Z,22.60
2018-05-02T11:45:23.999Z,22.60
2018-05-02T11:47:52.409Z,22.80
2018-05-02T11:50:21.202Z,22.70
2018-05-02T11:52:48.862Z,22.90
2018-05-02T11:55:24.643Z,23.00
2018-05-02T11:58:02.217Z,23.20
2018-05-02T12:03:56.468Z,23.40
2018-05-02T12:06:24.027Z,23.50
2018-05-02T12:08:51.624Z,23.70
2018-05-02T12:11:20.056Z,23.90
2018-05-02T12:13:47.606Z,23.90
2018-05-02T12:16:15.216Z,24.20
2018-05-02T12:18:42.769Z,24.40
2018-05-02T12:21:10.330Z,24.30
2018-05-02T12:23:37.898Z,24.50
2018-05-02T12:26:05.476Z,24.50
2018-05-02T12:28:33.107Z,24.60
2018-05-02T12:31:00.703Z,24.70
2018-05-02T12:33:29.034Z,25.00
2018-05-02T12:35:56.619Z,25.00
2018-05-02T12:38:24.235Z,25.00
2018-05-02T12:40:51.809Z,24.80
2018-05-02T12:43:19.417Z,25.00
2018-05-02T12:45:47.733Z,25.20
2018-05-02T12:48:15.289Z,25.10
2018-05-02T12:50:42.875Z,25.30
2018-05-02T12:53:10.426Z,25.40
2018-05-02T12:55:37.990Z,25.50
2018-05-02T12:58:05.563Z,25.50
2018-05-02T13:00:33.115Z,25.60
2018-05-02T13:03:00.731Z,25.70
2018-05-02T13:05:29.128Z,25.70
2018-05-02T13:07:56.693Z,25.70
2018-05-02T13:10:24.275Z,25.60
2018-05-02T13:12:51.823Z,25.60
2018-05-02T13:15:19.409Z,25.60
2018-05-02T13:17:46.990Z,25.50
2018-05-02T13:20:14.560Z,25.50
2018-05-02T13:22:42.863Z,25.50
2018-05-02T13:25:10.487Z,25.50
2018-05-02T13:27:38.033Z,25.80
2018-05-02T13:30:06.324Z,25.80
2018-05-02T13:32:33.915Z,25.90
2018-05-02T13:35:01.462Z,26.00
2018-05-02T13:37:29.799Z,26.10
2018-05-02T13:39:57.392Z,26.10
2018-05-02T13:42:25.714Z,26.10
2018-05-02T13:44:53.282Z,26.10
2018-05-02T13:47:20.895Z,26.20
2018-05-02T13:49:49.247Z,26.40
2018-05-02T13:52:16.851Z,26.40
2018-05-02T13:54:45.195Z,26.30
2018-05-02T13:57:12.804Z,26.30
2018-05-02T13:59:40.399Z,26.30
2018-05-02T14:02:07.985Z,26.30
2018-05-02T14:04:35.581Z,26.40
2018-05-02T14:07:03.313Z,26.50
2018-05-02T14:09:30.882Z,26.50
2018-05-02T14:11:59.220Z,26.20
2018-05-02T14:14:26.802Z,26.20
2018-05-02T14:16:54.346Z,26.30
2018-05-02T14:19:21.944Z,26.40
2018-05-02T14:21:50.258Z,26.40
2018-05-02T14:24:17.835Z,26.40
2018-05-02T14:26:46.328Z,26.40
2018-05-02T14:29:13.925Z,26.50
2018-05-02T14:31:42.287Z,26.40
2018-05-02T14:34:09.840Z,26.30
2018-05-02T14:36:37.403Z,26.20
2018-05-02T14:39:04.980Z,26.20
2018-05-02T14:41:33.314Z,26.20
2018-05-02T14:44:00.877Z,26.20
2018-05-02T14:46:28.434Z,26.30
2018-05-02T14:48:56.017Z,26.30
2018-05-02T14:51:23.575Z,26.30
2018-05-02T14:53:51.132Z,26.30
2018-05-02T14:56:18.772Z,26.30
2018-05-02T14:58:46.302Z,26.20
2018-05-02T15:01:14.677Z,26.10
2018-05-02T15:03:43.019Z,26.10
2018-05-02T15:06:10.557Z,26.10
2018-05-02T15:08:38.146Z,26.10
2018-05-02T15:11:05.688Z,26.00
2018-05-02T15:13:33.263Z,26.10
2018-05-02T15:16:00.835Z,26.00
2018-05-02T15:18:28.424Z,26.10
2018-05-02T15:20:56.015Z,26.00
2018-05-02T15:23:23.564Z,26.10
2018-05-02T15:25:51.148Z,26.00
2018-05-02T15:28:18.725Z,26.00
2018-05-02T15:30:46.282Z,26.00
2018-05-02T15:33:13.880Z,25.90
2018-05-02T15:35:42.216Z,25.90
2018-05-02T15:38:10.223Z,25.90
2018-05-02T15:40:38.614Z,25.90
2018-05-02T15:43:06.925Z,25.80
2018-05-02T15:45:34.484Z,25.80
2018-05-02T15:48:02.071Z,25.80
2018-05-02T15:50:29.658Z,25.90
2018-05-02T15:52:58.113Z,25.90
2018-05-02T15:55:25.685Z,25.90
2018-05-02T15:57:53.240Z,25.90
2018-05-02T16:00:20.831Z,25.90
2018-05-02T16:02:49.222Z,26.00
2018-05-02T16:05:16.788Z,26.00
2018-05-02T16:07:44.364Z,25.90
2018-05-02T16:10:11.967Z,26.00
2018-05-02T16:12:39.550Z,25.90
2018-05-02T16:15:07.903Z,25.80
2018-05-02T16:17:35.518Z,25.80
2018-05-02T16:20:03.068Z,25.80
2018-05-02T16:22:30.956Z,25.70
2018-05-02T16:24:58.734Z,25.70
2018-05-02T16:27:26.306Z,25.70
2018-05-02T16:29:53.988Z,25.60
2018-05-02T16:32:21.550Z,25.60
2018-05-02T16:34:49.145Z,25.60
2018-05-02T16:37:17.034Z,25.60
2018-05-02T16:39:44.591Z,25.60
2018-05-02T16:42:12.169Z,25.50
2018-05-02T16:44:39.777Z,25.40
2018-05-02T16:47:08.110Z,25.20
2018-05-02T16:49:35.666Z,25.20
2018-05-02T16:52:03.334Z,25.10
2018-05-02T16:54:30.854Z,25.00
2018-05-02T16:56:58.421Z,25.00
2018-05-02T16:59:26.089Z,25.00
2018-05-02T17:01:53.639Z,25.00
2018-05-02T17:04:21.216Z,24.90
2018-05-02T17:06:48.793Z,24.90
2018-05-02T17:09:16.406Z,24.80
2018-05-02T17:11:44.735Z,24.60
2018-05-02T17:14:12.299Z,24.60
2018-05-02T17:16:39.930Z,24.60
2018-05-02T17:19:07.525Z,24.50
2018-05-02T17:21:35.059Z,24.40
2018-05-02T17:24:02.643Z,24.40
2018-05-02T17:26:30.220Z,24.30
2018-05-02T17:28:57.847Z,24.20
2018-05-02T17:31:25.474Z,24.10
2018-05-02T17:33:53.890Z,24.00
2018-05-02T17:36:21.486Z,24.00
2018-05-02T17:38:49.049Z,23.90
2018-05-02T17:41:16.623Z,23.80
2018-05-02T17:43:44.321Z,23.70
2018-05-02T17:46:11.930Z,23.60
2018-05-02T17:48:39.506Z,23.50
2018-05-02T17:51:07.132Z,23.40
2018-05-02T17:53:34.711Z,23.40
2018-05-02T17:56:02.272Z,23.30
2018-05-02T17:58:29.886Z,23.20
2018-05-02T18:00:57.440Z,23.10
2018-05-02T18:03:25.005Z,23.00
2018-05-02T18:05:52.582Z,22.90
2018-05-02T18:08:20.131Z,22.80
2018-05-02T18:10:47.677Z,22.80
2018-05-02T18:13:16.031Z,22.70
2018-05-02T18:15:44.395Z,22.60
2018-05-02T18:18:12.756Z,22.60
2018-05-02T18:20:40.339Z,22.50
2018-05-02T18:23:07.936Z,22.50
2018-05-02T18:25:36.256Z,22.30
2018-05-02T18:28:03.832Z,22.30
2018-05-02T18:30:31.526Z,22.30
2018-05-02T18:32:59.863Z,22.20
2018-05-02T18:35:27.427Z,22.10
2018-05-02T18:37:55.014Z,22.10
2018-05-02T18:40:22.621Z,22.00
2018-05-02T18:42:50.191Z,22.00
2018-05-02T18:45:17.767Z,21.90
2018-05-02T18:47:45.371Z,21.80
2018-05-02T18:50:13.757Z,21.80
2018-05-02T18:52:42.097Z,21.70
2018-05-02T18:55:09.662Z,21.80
2018-05-02T18:57:37.251Z,21.70
2018-05-02T19:00:05.584Z,21.60
2018-05-02T19:02:33.154Z,21.60
2018-05-02T19:05:00.726Z,21.60
2018-05-02T19:07:28.289Z,21.60
2018-05-02T19:09:56.631Z,21.50
2018-05-02T19:12:24.201Z,21.40
2018-05-02T19:14:51.747Z,21.40
2018-05-02T19:17:19.581Z,21.30
2018-05-02T19:19:53.521Z,21.30
2018-05-02T19:22:21.164Z,21.30
2018-05-02T19:24:54.337Z,21.30
2018-05-02T19:27:22.729Z,21.20
2018-05-02T19:29:51.097Z,21.20
2018-05-02T19:32:24.264Z,21.10
2018-05-02T19:34:51.857Z,21.20
2018-05-02T19:37:19.450Z,21.10
2018-05-02T19:39:52.559Z,21.10
2018-05-02T19:42:25.658Z,21.00
2018-05-02T19:44:53.216Z,21.00
2018-05-02T19:47:20.820Z,21.00
2018-05-02T19:49:48.376Z,20.90
2018-05-02T19:55:32.221Z,20.80
2018-05-02T19:57:59.843Z,20.80
2018-05-02T20:00:33.208Z,20.70
2018-05-02T20:03:02.432Z,20.70
2018-05-02T20:05:30.129Z,20.60
2018-05-02T20:07:57.866Z,20.60
2018-05-02T20:10:31.107Z,20.60
2018-05-02T20:13:05.762Z,20.50
2018-05-02T20:15:34.205Z,20.50
2018-05-02T20:18:01.770Z,20.50
2018-05-02T20:20:29.488Z,20.40
2018-05-02T20:22:57.830Z,20.50
2018-05-02T20:25:26.216Z,20.40
2018-05-02T20:27:53.784Z,20.40
2018-05-02T20:30:21.450Z,20.40
2018-05-02T20:32:49.029Z,20.40
2018-05-02T20:35:17.003Z,20.30
2018-05-02T20:37:46.192Z,20.30
2018-05-02T20:40:13.787Z,20.20
2018-05-02T20:42:41.384Z,20.20
2018-05-02T20:45:10.504Z,20.20
2018-05-02T20:47:38.183Z,20.20
2018-05-02T20:50:05.698Z,20.20
2018-05-02T20:52:33.317Z,20.10
2018-05-02T20:55:01.713Z,20.10
2018-05-02T20:57:32.768Z,20.10
2018-05-02T21:00:00.547Z,20.10
2018-05-02T21:02:28.475Z,20.10
2018-05-02T21:04:56.046Z,20.00
2018-05-02T21:07:25.257Z,19.90
2018-05-02T21:09:53.636Z,19.90
2018-05-02T21:12:21.233Z,19.90
2018-05-02T21:14:48.802Z,19.90
2018-05-02T21:17:16.396Z,19.80
2018-05-02T21:19:43.992Z,19.80
2018-05-02T21:22:12.344Z,19.70
2018-05-02T21:24:40.742Z,19.70
2018-05-02T21:27:08.343Z,19.70
2018-05-02T21:29:36.449Z,19.70
2018-05-02T21:32:04.422Z,19.60
2018-05-02T21:34:32.011Z,19.60
2018-05-02T21:36:59.610Z,19.60
2018-05-02T21:39:27.241Z,19.50
2018-05-02T21:41:54.894Z,19.50
2018-05-02T21:44:22.460Z,19.50
2018-05-02T21:46:50.083Z,19.40
2018-05-02T21:49:17.648Z,19.40
2018-05-02T21:51:45.216Z,19.40
2018-05-02T21:54:12.921Z,19.40
2018-05-02T21:56:40.510Z,19.30
2018-05-02T21:59:08.137Z,19.30
2018-05-02T22:01:36.520Z,19.20
2018-05-02T22:04:04.113Z,19.20
2018-05-02T22:06:31.666Z,19.20
2018-05-02T22:08:59.293Z,19.20
2018-05-02T22:11:27.640Z,19.20
2018-05-02T22:13:55.241Z,19.10
2018-05-02T22:16:23.626Z,19.10
2018-05-02T22:18:51.219Z,19.10
2018-05-02T22:21:18.802Z,19.10
2018-05-02T22:23:46.442Z,19.10
2018-05-02T22:26:14.225Z,19.10
2018-05-02T22:28:42.077Z,19.10
2018-05-02T22:31:09.654Z,19.10
2018-05-02T22:33:37.317Z,19.00
2018-05-02T22:36:04.925Z,19.00
2018-05-02T22:38:32.515Z,19.00
2018-05-02T22:41:00.097Z,19.00
2018-05-02T22:43:28.358Z,19.00
2018-05-02T22:45:55.987Z,18.90
2018-05-02T22:48:24.350Z,18.90
2018-05-02T22:50:51.919Z,18.90
2018-05-02T22:53:20.280Z,18.80
2018-05-02T22:55:47.882Z,18.80
2018-05-02T22:58:15.571Z,18.80
2018-05-02T23:00:43.180Z,18.80
2018-05-02T23:03:11.675Z,18.80
2018-05-02T23:05:40.050Z,18.80
2018-05-02T23:08:08.413Z,18.70
2018-05-02T23:10:36.005Z,18.70
2018-05-02T23:13:03.618Z,18.70
2018-05-02T23:15:31.252Z,18.70
2018-05-02T23:17:58.839Z,18.70
2018-05-02T23:20:26.500Z,18.60
2018-05-02T23:22:54.104Z,18.60
2018-05-02T23:25:22.433Z,18.50
2018-05-02T23:27:50.071Z,18.50
2018-05-02T23:30:17.721Z,18.50
2018-05-02T23:32:45.245Z,18.40
2018-05-02T23:35:12.878Z,18.40
2018-05-02T23:37:40.451Z,18.40
2018-05-02T23:40:08.025Z,18.30
2018-05-02T23:42:35.641Z,18.30
2018-05-02T23:45:03.220Z,18.30
2018-05-02T23:47:30.827Z,18.30
2018-05-02T23:49:59.228Z,18.20
2018-05-02T23:52:26.793Z,18.20
2018-05-02T23:54:54.743Z,18.20
2018-05-02T23:57:23.085Z,18.10
2018-05-02T23:59:50.657Z,18.10
